Time;durP1;ratioP1;P1;durP2;ratioP2;P2;SDS_P1;SDS_P2;PMS_P1;PMS_P2;Temp;Humidity;BMP_temperature;BMP_pressure;BME280_temperature;BME280_humidity;BME280_pressure;Samples;Min_cycle;Max_cycle;Signal;HPM_P1;HPM_P2
2023/06/13 00:00:09;;;;;;;5.18;3.05;;;17.20;65.60;;;;;;5089406;28;20068;-51
2023/06/13 00:02:37;;;;;;;2.92;2.63;;;17.10;65.70;;;;;;5088921;28;20080;-52
2023/06/13 00:05:06;;;;;;;4.72;2.75;;;17.10;66.10;;;;;;5085464;28;20023;-48
2023/06/13 00:07:32;;;;;;;6.32;3.00;;;17.00;67.00;;;;;;5075305;28;20024;-50
2023/06/13 00:09:59;;;;;;;4.78;2.72;;;17.00;67.20;;;;;;5078485;28;20111;-48
2023/06/13 00:12:25;;;;;;;6.10;3.70;;;16.90;67.30;;;;;;5069567;28;20027;-48
2023/06/13 00:14:51;;;;;;;3.38;2.88;;;16.80;66.80;;;;;;5078753;28;20367;-49
2023/06/13 00:17:18;;;;;;;5.10;2.45;;;16.80;66.60;;;;;;5072989;28;20036;-48
2023/06/13 00:19:45;;;;;;;6.25;3.70;;;16.80;67.40;;;;;;5068635;28;20034;-49
2023/06/13 00:22:13;;;;;;;4.40;2.90;;;16.70;68.20;;;;;;5077128;28;20021;-49
2023/06/13 00:24:41;;;;;;;5.03;2.67;;;16.60;68.40;;;;;;5068550;28;20394;-50
2023/06/13 00:27:07;;;;;;;4.30;2.83;;;16.60;68.10;;;;;;5070518;28;20131;-50
2023/06/13 00:29:33;;;;;;;4.43;2.35;;;16.50;67.70;;;;;;5087493;28;20016;-50
2023/06/13 00:31:58;;;;;;;3.20;2.72;;;16.50;67.00;;;;;;5069417;28;20081;-48
2023/06/13 00:34:24;;;;;;;6.68;2.95;;;16.50;67.40;;;;;;5068691;28;20116;-50
2023/06/13 00:36:50;;;;;;;4.85;2.35;;;16.50;68.00;;;;;;5066605;28;20021;-48
2023/06/13 00:39:15;;;;;;;5.35;2.97;;;16.40;67.70;;;;;;5068753;28;20052;-48
2023/06/13 00:41:41;;;;;;;6.22;2.92;;;16.40;67.60;;;;;;5068833;28;20052;-48
2023/06/13 00:44:07;;;;;;;5.65;2.83;;;16.40;67.70;;;;;;5072029;28;20078;-48
2023/06/13 00:46:34;;;;;;;3.17;2.88;;;16.40;68.30;;;;;;5071120;28;20024;-49
2023/06/13 00:49:01;;;;;;;4.22;2.90;;;16.30;68.10;;;;;;5069372;28;20020;-49
2023/06/13 00:51:28;;;;;;;3.45;2.88;;;16.30;68.00;;;;;;5080834;28;20307;-50
2023/06/13 00:53:54;;;;;;;4.18;2.55;;;16.20;67.90;;;;;;5086746;28;20099;-49
2023/06/13 00:56:20;;;;;;;4.55;2.92;;;16.30;68.60;;;;;;5074303;28;20471;-48
2023/06/13 00:58:45;;;;;;;4.40;2.80;;;16.20;67.90;;;;;;5085337;28;20146;-49
2023/06/13 01:01:13;;;;;;;4.93;2.60;;;16.20;67.40;;;;;;5076031;28;20024;-48
2023/06/13 01:03:39;;;;;;;3.58;2.67;;;16.10;68.30;;;;;;5068316;28;20024;-49
2023/06/13 01:06:05;;;;;;;4.25;2.40;;;16.10;70.10;;;;;;5074920;28;20039;-51
2023/06/13 01:08:31;;;;;;;4.53;2.58;;;16.00;69.70;;;;;;5084467;28;20016;-52
2023/06/13 01:11:06;;;;;;;4.45;3.08;;;16.00;69.60;;;;;;5082091;28;20032;-49
2023/06/13 01:13:55;;;;;;;5.70;2.67;;;15.90;71.30;;;;;;5072604;28;20021;-50
2023/06/13 01:16:45;;;;;;;8.32;3.05;;;15.90;71.30;;;;;;5071561;28;20017;-51
2023/06/13 01:19:41;;;;;;;8.57;3.38;;;15.80;71.30;;;;;;5071057;28;20391;-50
2023/06/13 01:22:12;;;;;;;3.45;2.90;;;15.70;69.70;;;;;;5071331;28;20035;-48
2023/06/13 01:25:00;;;;;;;5.63;3.08;;;15.70;71.20;;;;;;5069292;28;20029;-51
2023/06/13 01:27:49;;;;;;;4.63;3.00;;;15.60;71.50;;;;;;5074211;28;20485;-48
2023/06/13 01:30:34;;;;;;;8.15;3.63;;;15.50;71.70;;;;;;5086489;28;20028;-48
2023/06/13 01:33:00;;;;;;;3.10;2.80;;;15.50;71.00;;;;;;5100402;28;20031;-49
2023/06/13 01:35:27;;;;;;;8.18;3.20;;;15.50;72.00;;;;;;5085387;28;20028;-48
2023/06/13 01:37:52;;;;;;;3.25;2.65;;;15.50;72.10;;;;;;5078401;28;20489;-50
2023/06/13 01:40:18;;;;;;;6.63;2.88;;;15.40;72.80;;;;;;5081923;28;20031;-48
2023/06/13 01:42:43;;;;;;;5.55;2.53;;;15.30;72.90;;;;;;5075145;28;20027;-50
2023/06/13 01:45:10;;;;;;;5.85;3.30;;;15.30;73.30;;;;;;5070656;28;20035;-50
2023/06/13 01:47:54;;;;;;;8.15;2.88;;;15.20;73.90;;;;;;5071883;28;20381;-49
2023/06/13 01:50:32;;;;;;;2.90;2.55;;;15.10;73.40;;;;;;5074586;28;20107;-51
2023/06/13 01:53:00;;;;;;;4.65;3.08;;;15.10;73.80;;;;;;5074548;28;20411;-48
2023/06/13 01:55:37;;;;;;;3.88;3.45;;;15.00;74.60;;;;;;5072839;28;20029;-47
2023/06/13 01:58:10;;;;;;;3.97;3.20;;;15.00;74.60;;;;;;5075408;28;20378;-48
2023/06/13 02:00:38;;;;;;;6.03;2.92;;;14.90;74.40;;;;;;5070337;28;20027;-48
2023/06/13 02:03:04;;;;;;;7.53;3.00;;;14.90;75.00;;;;;;5070412;28;20297;-50
2023/06/13 02:05:30;;;;;;;6.32;3.30;;;14.80;75.00;;;;;;5069594;28;20512;-47
2023/06/13 02:07:56;;;;;;;7.53;3.33;;;14.80;75.50;;;;;;5072661;28;20024;-47
2023/06/13 02:10:23;;;;;;;6.47;3.30;;;14.70;74.20;;;;;;5086495;28;20013;-48
2023/06/13 02:12:49;;;;;;;3.85;2.88;;;14.70;74.00;;;;;;5080150;28;20385;-50
2023/06/13 02:15:15;;;;;;;5.95;3.30;;;14.80;74.00;;;;;;5070920;28;20023;-47
2023/06/13 02:17:40;;;;;;;5.82;3.10;;;14.80;74.20;;;;;;5079491;28;20455;-50
2023/06/13 02:20:06;;;;;;;4.32;3.08;;;14.80;73.80;;;;;;5090497;28;20103;-51
2023/06/13 02:22:32;;;;;;;4.00;3.20;;;14.70;74.40;;;;;;5082706;28;20032;-50
2023/06/13 02:24:59;;;;;;;5.97;3.35;;;14.70;74.70;;;;;;5088606;28;20496;-48
2023/06/13 02:27:25;;;;;;;5.75;3.42;;;14.60;74.10;;;;;;5076105;28;20032;-47
2023/06/13 02:29:51;;;;;;;4.68;2.90;;;14.70;74.40;;;;;;5082787;28;20016;-49
2023/06/13 02:32:18;;;;;;;5.65;3.40;;;14.60;75.10;;;;;;5090882;28;20376;-48
2023/06/13 02:34:44;;;;;;;5.28;2.92;;;14.60;74.00;;;;;;5074336;28;20060;-50
2023/06/13 02:37:09;;;;;;;4.30;3.13;;;14.60;74.20;;;;;;5073901;28;20039;-48
2023/06/13 02:39:35;;;;;;;5.18;3.53;;;14.60;74.30;;;;;;5075998;28;20020;-48
2023/06/13 02:42:00;;;;;;;6.22;3.35;;;14.50;74.30;;;;;;5078800;28;20438;-49
2023/06/13 02:44:26;;;;;;;4.63;3.00;;;14.50;74.70;;;;;;5076496;28;20050;-48
2023/06/13 02:46:51;;;;;;;4.32;3.13;;;14.50;74.90;;;;;;5081268;28;20393;-48
2023/06/13 02:49:17;;;;;;;4.93;3.33;;;14.50;75.50;;;;;;5070518;28;20056;-50
2023/06/13 02:51:42;;;;;;;5.70;3.53;;;14.50;75.30;;;;;;5069012;28;20020;-51
2023/06/13 02:54:08;;;;;;;10.40;3.28;;;14.50;76.00;;;;;;5081513;28;20031;-49
2023/06/13 02:56:36;;;;;;;4.00;3.22;;;14.50;76.30;;;;;;5074817;28;20023;-48
2023/06/13 02:59:01;;;;;;;6.75;3.95;;;14.50;76.10;;;;;;5076695;28;20387;-49
2023/06/13 03:01:29;;;;;;;4.43;3.20;;;14.50;76.00;;;;;;5072006;28;20024;-49
2023/06/13 03:04:13;;;;;;;4.55;3.22;;;14.50;76.60;;;;;;5087215;28;20063;-49
2023/06/13 03:06:40;;;;;;;6.22;3.20;;;14.40;76.60;;;;;;5087396;28;20066;-49
2023/06/13 03:09:07;;;;;;;7.25;3.90;;;14.50;76.80;;;;;;5075808;28;20509;-48
2023/06/13 03:11:32;;;;;;;5.93;2.90;;;14.50;76.80;;;;;;5075960;28;20466;-49
2023/06/13 03:13:58;;;;;;;5.30;3.20;;;14.50;76.40;;;;;;5070226;28;20027;-48
2023/06/13 03:16:24;;;;;;;5.00;3.53;;;14.50;75.90;;;;;;5069306;28;20036;-48
2023/06/13 03:18:50;;;;;;;5.70;3.50;;;14.50;75.70;;;;;;5069753;28;20019;-50
2023/06/13 03:21:15;;;;;;;7.65;3.40;;;14.50;76.30;;;;;;5077849;28;20123;-48
2023/06/13 03:23:41;;;;;;;5.78;3.28;;;14.40;75.90;;;;;;5069956;28;20083;-51
2023/06/13 03:26:09;;;;;;;8.23;3.40;;;14.40;76.00;;;;;;5069069;28;20129;-49
2023/06/13 03:28:35;;;;;;;6.18;3.45;;;14.40;76.50;;;;;;5079443;28;20047;-50
2023/06/13 03:31:00;;;;;;;4.80;3.20;;;14.40;76.80;;;;;;5088023;28;20028;-49
2023/06/13 03:33:26;;;;;;;7.78;3.25;;;14.40;77.00;;;;;;5069013;28;20023;-51
2023/06/13 03:35:52;;;;;;;4.55;3.50;;;14.30;77.40;;;;;;5085629;28;20030;-48
2023/06/13 03:38:18;;;;;;;5.43;3.28;;;14.30;78.00;;;;;;5085505;28;20070;-48
2023/06/13 03:40:44;;;;;;;4.57;3.53;;;14.30;77.70;;;;;;5077871;28;20024;-49
2023/06/13 03:43:09;;;;;;;5.15;3.50;;;14.20;78.00;;;;;;5080890;28;20433;-50
2023/06/13 03:45:35;;;;;;;6.20;3.53;;;14.20;78.10;;;;;;5079700;28;20111;-49
2023/06/13 03:48:01;;;;;;;3.85;3.03;;;14.20;78.00;;;;;;5087633;28;20477;-47
2023/06/13 03:50:27;;;;;;;4.78;3.47;;;14.20;78.20;;;;;;5069231;28;20074;-49
2023/06/13 03:52:52;;;;;;;5.50;2.95;;;14.20;77.40;;;;;;5077821;28;20025;-47
2023/06/13 03:55:18;;;;;;;8.48;3.85;;;14.20;77.90;;;;;;5068765;28;20145;-49
2023/06/13 03:57:44;;;;;;;5.68;3.47;;;14.20;77.20;;;;;;5069300;28;20394;-48
2023/06/13 04:00:13;;;;;;;6.40;3.55;;;14.20;78.20;;;;;;5077477;28;20039;-48
2023/06/13 04:02:39;;;;;;;7.55;3.40;;;14.20;77.50;;;;;;5069313;28;20025;-48
2023/06/13 04:05:06;;;;;;;5.57;3.50;;;14.30;76.70;;;;;;5078612;28;20076;-50
2023/06/13 04:07:33;;;;;;;5.40;3.22;;;14.30;77.30;;;;;;5083096;28;20025;-48
2023/06/13 04:10:01;;;;;;;4.05;3.03;;;14.30;77.10;;;;;;5068664;28;20020;-48
2023/06/13 04:12:27;;;;;;;8.00;3.15;;;14.30;76.50;;;;;;5067774;28;20020;-49
2023/06/13 04:14:52;;;;;;;4.53;2.80;;;14.20;75.90;;;;;;5068672;28;20064;-49
2023/06/13 04:17:18;;;;;;;6.28;3.08;;;14.20;76.70;;;;;;5077016;28;20708;-47
2023/06/13 04:19:43;;;;;;;5.28;3.15;;;14.30;77.50;;;;;;5069059;28;20082;-48
2023/06/13 04:22:09;;;;;;;10.02;3.22;;;14.30;77.00;;;;;;5068318;28;20043;-47
2023/06/13 04:24:35;;;;;;;5.18;3.25;;;14.30;77.60;;;;;;5068913;28;20048;-49
2023/06/13 04:27:03;;;;;;;6.88;3.83;;;14.30;76.40;;;;;;5068106;28;20474;-49
2023/06/13 04:29:29;;;;;;;5.20;3.40;;;14.30;76.00;;;;;;5067264;28;20478;-47
2023/06/13 04:31:55;;;;;;;4.38;2.90;;;14.30;76.20;;;;;;5069038;28;20134;-49
2023/06/13 04:34:23;;;;;;;4.32;3.15;;;14.30;76.10;;;;;;5080174;28;20409;-48
2023/06/13 04:36:49;;;;;;;7.03;3.47;;;14.30;75.50;;;;;;5086593;28;20085;-48
2023/06/13 04:39:17;;;;;;;9.93;3.25;;;14.40;76.10;;;;;;5076548;28;20473;-48
2023/06/13 04:41:43;;;;;;;6.20;3.17;;;14.40;75.70;;;;;;5068551;28;20016;-48
2023/06/13 04:44:10;;;;;;;7.20;3.03;;;14.40;75.20;;;;;;5068815;28;20063;-48
2023/06/13 04:46:38;;;;;;;8.25;3.25;;;14.40;75.90;;;;;;5067939;28;20044;-47
2023/06/13 04:49:06;;;;;;;6.43;3.50;;;14.40;76.90;;;;;;5067941;28;20024;-48
2023/06/13 04:51:33;;;;;;;6.00;2.83;;;14.40;76.00;;;;;;5068029;28;20021;-48
2023/06/13 04:54:00;;;;;;;6.78;3.55;;;14.50;75.70;;;;;;5076306;28;20335;-48
2023/06/13 04:56:27;;;;;;;5.22;3.17;;;14.50;75.60;;;;;;5067581;28;20009;-49
2023/06/13 04:58:53;;;;;;;5.80;2.75;;;14.60;75.40;;;;;;5066573;28;20386;-47
2023/06/13 05:01:20;;;;;;;8.57;3.08;;;14.60;75.40;;;;;;5076334;28;20031;-48
2023/06/13 05:03:47;;;;;;;5.32;3.15;;;14.60;75.40;;;;;;5068012;28;20017;-49
2023/06/13 05:06:13;;;;;;;5.00;2.70;;;14.50;75.90;;;;;;5065212;28;20541;-48
2023/06/13 05:08:38;;;;;;;4.93;3.00;;;14.60;76.00;;;;;;5082813;28;20111;-49
2023/06/13 05:11:04;;;;;;;5.97;3.78;;;14.60;77.00;;;;;;5078166;28;20510;-47
2023/06/13 05:13:30;;;;;;;9.52;3.22;;;14.60;76.50;;;;;;5068238;28;20040;-48
2023/06/13 05:15:56;;;;;;;7.13;3.05;;;14.70;77.00;;;;;;5075583;28;20067;-48
2023/06/13 05:18:29;;;;;;;4.57;3.03;;;14.70;76.50;;;;;;5067833;28;20017;-49
2023/06/13 05:20:56;;;;;;;3.42;3.00;;;14.80;76.20;;;;;;5067357;28;20544;-48
2023/06/13 05:23:22;;;;;;;5.47;3.20;;;14.80;76.80;;;;;;5067908;28;20044;-47
2023/06/13 05:25:48;;;;;;;4.78;3.13;;;14.90;76.80;;;;;;5066571;28;20418;-48
2023/06/13 05:28:14;;;;;;;7.60;3.60;;;14.90;78.40;;;;;;5075699;28;20576;-49
2023/06/13 05:30:39;;;;;;;4.70;3.42;;;14.90;77.50;;;;;;5081941;28;20103;-49
2023/06/13 05:33:06;;;;;;;4.60;3.10;;;14.90;77.70;;;;;;5073418;28;20051;-49
2023/06/13 05:35:31;;;;;;;4.70;2.85;;;15.00;77.40;;;;;;5077606;28;20016;-51
2023/06/13 05:37:57;;;;;;;7.72;3.25;;;15.10;77.80;;;;;;5068140;28;20108;-48
2023/06/13 05:40:22;;;;;;;6.35;3.40;;;15.10;77.60;;;;;;5065888;28;20017;-49
2023/06/13 05:42:48;;;;;;;6.95;3.08;;;15.20;77.70;;;;;;5068984;28;20179;-50
2023/06/13 05:45:14;;;;;;;5.30;3.17;;;15.20;77.60;;;;;;5065346;28;20181;-50
2023/06/13 05:47:39;;;;;;;7.72;3.35;;;15.30;77.30;;;;;;5066737;28;20435;-49
2023/06/13 05:50:05;;;;;;;8.55;2.90;;;15.40;78.10;;;;;;5074197;28;20032;-47
2023/06/13 05:52:31;;;;;;;5.95;3.33;;;15.50;77.80;;;;;;5074023;28;20558;-49
2023/06/13 05:54:57;;;;;;;6.50;3.70;;;15.50;76.40;;;;;;5072002;28;20107;-49
2023/06/13 05:57:24;;;;;;;8.05;3.10;;;15.50;76.90;;;;;;5070724;28;20051;-48
2023/06/13 05:59:50;;;;;;;4.30;3.58;;;15.60;77.30;;;;;;5081178;28;20395;-48
2023/06/13 06:02:16;;;;;;;6.05;2.78;;;15.70;76.90;;;;;;5076212;28;20032;-49
2023/06/13 06:04:42;;;;;;;5.97;3.75;;;15.70;77.10;;;;;;5084251;28;20469;-48
2023/06/13 06:07:07;;;;;;;9.98;3.72;;;15.80;76.60;;;;;;5071601;28;20024;-50
2023/06/13 06:09:33;;;;;;;4.55;2.90;;;15.90;75.60;;;;;;5076928;28;20028;-48
2023/06/13 06:11:58;;;;;;;6.82;3.30;;;15.90;76.60;;;;;;5070514;28;20035;-48
2023/06/13 06:14:24;;;;;;;6.82;3.45;;;16.00;76.40;;;;;;5085022;28;20016;-47
2023/06/13 06:16:52;;;;;;;8.30;3.88;;;16.10;77.20;;;;;;5074096;28;20020;-49
2023/06/13 06:19:18;;;;;;;7.57;3.58;;;16.20;76.20;;;;;;5073398;28;20024;-51
2023/06/13 06:21:43;;;;;;;8.10;3.58;;;16.30;75.80;;;;;;5070968;28;20038;-50
2023/06/13 06:24:09;;;;;;;6.97;3.67;;;16.30;75.40;;;;;;5070527;28;20016;-51
2023/06/13 06:26:34;;;;;;;8.38;3.00;;;16.40;76.50;;;;;;5074810;28;20469;-50
2023/06/13 06:29:00;;;;;;;6.05;3.10;;;16.40;75.50;;;;;;5080214;28;20474;-50
2023/06/13 06:31:27;;;;;;;6.20;3.63;;;16.40;75.40;;;;;;5075077;28;20020;-50
2023/06/13 06:33:53;;;;;;;5.03;3.17;;;16.50;75.60;;;;;;5073744;28;20027;-48
2023/06/13 06:36:22;;;;;;;8.88;3.60;;;16.70;75.90;;;;;;5071765;28;20381;-51
2023/06/13 06:38:48;;;;;;;4.25;2.90;;;16.70;76.10;;;;;;5076229;28;20085;-48
2023/06/13 06:41:14;;;;;;;5.80;3.22;;;16.80;76.40;;;;;;5072078;28;20028;-47
2023/06/13 06:43:40;;;;;;;8.32;3.30;;;16.90;76.50;;;;;;5071725;28;20028;-50
2023/06/13 06:46:07;;;;;;;4.88;3.40;;;17.00;75.50;;;;;;5068318;28;20380;-51
2023/06/13 06:48:33;;;;;;;7.63;4.40;;;17.10;75.70;;;;;;5071834;28;20031;-50
2023/06/13 06:50:58;;;;;;;5.78;3.50;;;17.20;76.20;;;;;;5075705;28;20025;-50
2023/06/13 06:53:24;;;;;;;3.90;3.22;;;17.30;76.20;;;;;;5071963;28;20448;-50
2023/06/13 06:55:49;;;;;;;4.35;3.13;;;17.30;75.80;;;;;;5073693;28;20025;-51
2023/06/13 06:58:15;;;;;;;7.90;4.00;;;17.50;75.80;;;;;;5082193;28;20033;-48
2023/06/13 07:00:41;;;;;;;5.78;3.17;;;17.60;75.00;;;;;;5069396;28;20067;-49
2023/06/13 07:03:07;;;;;;;6.95;3.97;;;17.60;75.20;;;;;;5080311;28;20116;-48
2023/06/13 07:05:32;;;;;;;7.22;3.38;;;17.70;74.30;;;;;;5074125;28;20009;-50
2023/06/13 07:07:58;;;;;;;3.78;3.08;;;17.80;74.90;;;;;;5068958;28;20032;-49
2023/06/13 07:10:25;;;;;;;6.43;3.42;;;17.90;75.20;;;;;;5069388;28;20020;-50
2023/06/13 07:12:50;;;;;;;5.85;3.50;;;18.00;74.40;;;;;;5068425;28;20382;-51
2023/06/13 07:15:16;;;;;;;8.55;3.35;;;18.10;74.00;;;;;;5067451;28;20032;-50
2023/06/13 07:17:41;;;;;;;7.65;3.50;;;18.10;74.50;;;;;;5071798;28;20044;-48
2023/06/13 07:20:11;;;;;;;4.35;3.78;;;18.20;74.10;;;;;;5069581;28;20033;-51
2023/06/13 07:22:37;;;;;;;4.15;3.40;;;18.30;73.10;;;;;;5071643;28;20055;-51
2023/06/13 07:25:03;;;;;;;7.15;3.42;;;18.50;73.30;;;;;;5067920;28;20035;-50
2023/06/13 07:27:29;;;;;;;5.40;2.90;;;18.60;74.10;;;;;;5073853;28;20100;-50
2023/06/13 07:29:55;;;;;;;6.85;3.40;;;18.80;74.50;;;;;;5068598;28;20174;-49
2023/06/13 07:32:20;;;;;;;6.43;3.63;;;18.80;73.00;;;;;;5075794;28;20017;-51
2023/06/13 07:34:46;;;;;;;9.35;3.83;;;19.00;72.60;;;;;;5068739;28;20020;-51
2023/06/13 07:37:11;;;;;;;6.18;3.60;;;19.30;71.30;;;;;;5075221;28;20154;-52
2023/06/13 07:39:37;;;;;;;8.45;4.13;;;19.50;71.90;;;;;;5072317;28;20294;-51
2023/06/13 07:42:02;;;;;;;4.82;3.30;;;19.60;71.70;;;;;;5079369;28;20052;-49
2023/06/13 07:44:28;;;;;;;7.45;3.42;;;19.80;70.70;;;;;;5078491;28;20385;-47
2023/06/13 07:46:53;;;;;;;9.13;4.32;;;19.90;69.70;;;;;;5075394;28;20027;-48
2023/06/13 07:49:19;;;;;;;6.47;3.30;;;20.00;69.80;;;;;;5087591;28;20024;-48
2023/06/13 07:51:45;;;;;;;7.78;4.05;;;20.10;70.80;;;;;;5088527;28;20028;-52
2023/06/13 07:54:10;;;;;;;11.32;3.60;;;20.20;69.30;;;;;;5079647;28;20390;-50
2023/06/13 07:56:36;;;;;;;6.65;3.58;;;20.30;69.70;;;;;;5083297;28;20024;-48
2023/06/13 07:59:02;;;;;;;8.57;3.85;;;20.50;69.00;;;;;;5080755;28;20028;-50
2023/06/13 08:01:28;;;;;;;5.80;3.67;;;20.80;68.00;;;;;;5084814;28;20362;-51
2023/06/13 08:03:53;;;;;;;5.75;3.20;;;21.10;68.70;;;;;;5085517;28;20078;-51
2023/06/13 08:06:19;;;;;;;7.80;3.88;;;21.30;67.80;;;;;;5083082;28;20039;-51
2023/06/13 08:08:44;;;;;;;6.95;4.10;;;21.60;67.00;;;;;;5083427;28;20077;-51
2023/06/13 08:11:10;;;;;;;9.88;4.25;;;22.10;66.10;;;;;;5080037;28;20020;-49
2023/06/13 08:13:36;;;;;;;4.80;3.13;;;23.00;63.40;;;;;;5083952;28;20025;-50
2023/06/13 08:16:02;;;;;;;5.20;3.13;;;24.30;61.60;;;;;;5071811;28;20024;-50
2023/06/13 08:18:27;;;;;;;6.28;3.92;;;25.60;58.90;;;;;;5074698;28;20043;-49
2023/06/13 08:20:53;;;;;;;6.95;3.55;;;26.70;56.60;;;;;;5087631;28;20482;-49
2023/06/13 08:23:18;;;;;;;7.63;3.75;;;27.70;55.00;;;;;;5074338;28;20090;-50
2023/06/13 08:25:44;;;;;;;6.97;3.30;;;28.30;54.10;;;;;;5084036;28;20028;-51
2023/06/13 08:28:11;;;;;;;5.03;3.08;;;29.20;52.50;;;;;;5085196;28;20016;-51
2023/06/13 08:30:37;;;;;;;6.97;3.40;;;29.90;51.30;;;;;;5087559;28;20681;-49
2023/06/13 08:33:02;;;;;;;6.95;3.38;;;30.10;50.60;;;;;;5086324;28;20158;-52
2023/06/13 08:35:28;;;;;;;7.32;3.85;;;30.70;49.10;;;;;;5087340;28;20035;-50
2023/06/13 08:37:54;;;;;;;4.43;3.22;;;31.40;48.80;;;;;;5083524;28;20032;-51
2023/06/13 08:40:20;;;;;;;6.10;3.20;;;31.50;48.30;;;;;;5084816;28;20036;-52
2023/06/13 08:42:46;;;;;;;4.97;2.65;;;32.30;47.70;;;;;;5083439;28;20028;-52
2023/06/13 08:45:12;;;;;;;13.98;3.38;;;32.50;47.90;;;;;;5086575;28;20081;-50
2023/06/13 08:47:39;;;;;;;172.07;32.03;;;33.30;46.50;;;;;;5087324;28;20300;-53
2023/06/13 08:50:06;;;;;;;147.65;19.98;;;33.80;46.80;;;;;;5086056;28;20035;-52
2023/06/13 08:52:38;;;;;;;8.80;3.78;;;34.00;46.10;;;;;;5086765;28;20020;-52
2023/06/13 08:55:08;;;;;;;4.57;3.10;;;34.50;45.40;;;;;;5085845;28;20060;-52
2023/06/13 08:57:36;;;;;;;5.97;3.45;;;34.60;44.20;;;;;;5087600;28;20087;-52
2023/06/13 09:00:04;;;;;;;9.60;3.63;;;34.90;44.40;;;;;;5087010;28;20032;-53
2023/06/13 09:02:31;;;;;;;5.05;3.08;;;35.30;44.80;;;;;;5078222;28;20085;-53
2023/06/13 09:04:57;;;;;;;18.77;5.00;;;35.70;44.10;;;;;;5086458;28;20143;-52
2023/06/13 09:07:25;;;;;;;17.00;4.40;;;36.30;43.70;;;;;;5073884;28;20074;-52
2023/06/13 09:09:51;;;;;;;7.00;3.90;;;36.60;42.90;;;;;;5078640;28;20104;-53
2023/06/13 09:12:17;;;;;;;6.43;2.88;;;36.60;43.00;;;;;;5085406;28;20039;-53
2023/06/13 09:14:44;;;;;;;6.20;3.28;;;36.80;41.70;;;;;;5079801;28;20032;-53
2023/06/13 09:17:11;;;;;;;5.88;3.08;;;37.00;43.20;;;;;;5084407;28;20047;-53
2023/06/13 09:19:37;;;;;;;6.85;3.15;;;37.30;41.80;;;;;;5085611;28;20125;-53
2023/06/13 09:22:03;;;;;;;4.80;3.25;;;37.10;41.90;;;;;;5077370;28;20127;-53
2023/06/13 09:24:32;;;;;;;4.85;2.83;;;37.50;42.20;;;;;;5070200;28;20064;-52
2023/06/13 09:26:59;;;;;;;6.90;3.10;;;37.60;42.30;;;;;;5069720;28;20020;-53
2023/06/13 09:29:44;;;;;;;7.22;3.22;;;38.00;41.00;;;;;;5063147;28;20036;-52
2023/06/13 09:32:11;;;;;;;4.70;3.05;;;38.50;39.70;;;;;;5069012;28;20021;-53
2023/06/13 09:34:57;;;;;;;5.55;3.20;;;38.10;39.80;;;;;;5080513;28;20039;-53
2023/06/13 09:37:25;;;;;;;7.03;3.20;;;38.50;40.20;;;;;;5080133;28;20410;-53
2023/06/13 09:39:51;;;;;;;3.90;3.20;;;38.60;39.50;;;;;;5070202;28;20041;-53
2023/06/13 09:42:22;;;;;;;6.32;3.33;;;39.40;39.30;;;;;;5067418;28;20118;-54
2023/06/13 09:44:52;;;;;;;4.97;3.42;;;38.90;39.00;;;;;;5066797;28;20020;-53
2023/06/13 09:47:22;;;;;;;4.60;3.25;;;39.40;39.70;;;;;;5069798;28;20019;-53
2023/06/13 09:49:57;;;;;;;4.90;3.28;;;39.50;37.60;;;;;;5068106;28;20031;-53
2023/06/13 09:52:27;;;;;;;5.18;3.60;;;39.20;37.70;;;;;;5069324;28;20433;-53
2023/06/13 09:54:54;;;;;;;6.35;3.08;;;40.00;37.30;;;;;;5071890;28;20041;-53
2023/06/13 09:57:21;;;;;;;4.28;3.08;;;40.00;37.30;;;;;;5071333;28;20024;-53
2023/06/13 09:59:47;;;;;;;4.57;2.85;;;39.40;37.70;;;;;;5071694;28;20048;-53
2023/06/13 10:02:14;;;;;;;5.10;3.05;;;38.40;37.70;;;;;;5070308;28;20428;-53
2023/06/13 10:04:40;;;;;;;7.35;3.13;;;38.70;38.20;;;;;;5071597;28;20406;-53
2023/06/13 10:07:05;;;;;;;6.43;3.50;;;39.10;37.40;;;;;;5069469;28;20021;-52
2023/06/13 10:09:31;;;;;;;6.13;3.08;;;39.40;38.00;;;;;;5069879;28;20036;-53
2023/06/13 10:11:59;;;;;;;7.30;3.25;;;39.40;37.60;;;;;;5070418;28;20122;-52
2023/06/13 10:14:26;;;;;;;7.07;3.30;;;38.90;37.70;;;;;;5069925;28;20021;-53
2023/06/13 10:16:59;;;;;;;3.35;2.95;;;39.10;36.40;;;;;;5074316;28;20059;-53
2023/06/13 10:19:26;;;;;;;7.82;3.45;;;39.60;34.10;;;;;;5073570;28;20111;-53
2023/06/13 10:21:52;;;;;;;4.53;3.22;;;40.50;34.10;;;;;;5087106;28;20036;-53
2023/06/13 10:24:20;;;;;;;5.97;3.30;;;40.30;34.10;;;;;;5088105;28;20105;-54
2023/06/13 10:26:46;;;;;;;6.00;3.17;;;39.20;33.90;;;;;;5070017;28;20039;-52
2023/06/13 10:29:24;;;;;;;7.28;3.40;;;39.40;34.40;;;;;;5070443;28;20017;-52
2023/06/13 10:32:05;;;;;;;6.93;3.35;;;39.40;34.90;;;;;;5082133;28;20097;-52
2023/06/13 10:34:40;;;;;;;9.80;3.80;;;39.20;35.60;;;;;;5089764;28;20047;-53
2023/06/13 10:37:34;;;;;;;5.10;3.53;;;39.30;35.90;;;;;;5083321;28;20024;-53
2023/06/13 10:40:47;;;;;;;9.00;3.28;;;39.80;35.20;;;;;;5078230;28;20342;-52
2023/06/13 10:43:32;;;;;;;4.43;3.22;;;37.80;35.20;;;;;;5081666;28;20016;-50
2023/06/13 10:46:04;;;;;;;4.40;3.53;;;37.50;36.80;;;;;;5089814;28;20025;-50
2023/06/13 10:48:38;;;;;;;7.35;3.33;;;38.20;36.00;;;;;;5087744;28;20444;-50
2023/06/13 10:51:08;;;;;;;4.05;3.58;;;38.90;34.90;;;;;;5080461;28;20517;-50
2023/06/13 10:53:34;;;;;;;4.40;3.47;;;40.00;34.20;;;;;;5074861;28;20012;-50
2023/06/13 10:56:06;;;;;;;4.63;3.75;;;40.30;34.30;;;;;;5083021;28;20500;-51
2023/06/13 10:58:34;;;;;;;4.30;3.40;;;39.80;34.40;;;;;;5085139;28;20644;-49
2023/06/13 11:01:25;;;;;;;6.47;3.47;;;40.30;34.10;;;;;;5085531;28;20082;-52
2023/06/13 11:03:50;;;;;;;6.47;3.50;;;40.00;34.30;;;;;;5082429;28;20028;-49
2023/06/13 11:06:16;;;;;;;5.10;3.80;;;40.80;33.30;;;;;;5080614;28;20028;-49
2023/06/13 11:08:43;;;;;;;3.53;3.22;;;40.90;33.20;;;;;;5076258;28;20139;-52
2023/06/13 11:11:09;;;;;;;4.88;3.05;;;40.80;33.40;;;;;;5088925;28;20039;-52
2023/06/13 11:13:35;;;;;;;7.32;3.65;;;41.20;33.50;;;;;;5079433;28;20050;-52
2023/06/13 11:16:35;;;;;;;4.93;3.50;;;41.10;33.70;;;;;;5082727;28;20028;-49
2023/06/13 11:19:15;;;;;;;10.30;4.13;;;41.50;33.70;;;;;;5069127;28;20017;-49
2023/06/13 11:22:04;;;;;;;4.18;3.22;;;39.10;34.50;;;;;;5069774;28;20040;-49
2023/06/13 11:24:30;;;;;;;;;;;37.40;35.50;;;;;;5067781;28;20105;-49
2023/06/13 11:26:57;;;;;;;4.70;3.70;;;36.40;35.40;;;;;;5072856;28;19908;-51
2023/06/13 11:29:23;;;;;;;8.52;3.88;;;35.00;37.70;;;;;;5070773;28;20025;-48
2023/06/13 11:31:53;;;;;;;5.55;3.95;;;34.50;37.70;;;;;;5074817;28;20554;-48
2023/06/13 11:34:22;;;;;;;;;;;33.90;38.80;;;;;;5073196;28;20020;-48
2023/06/13 11:36:49;;;;;;;4.82;4.07;;;32.90;38.80;;;;;;5072564;28;19918;-48
2023/06/13 11:39:37;;;;;;;8.85;4.57;;;32.50;39.60;;;;;;5068664;28;20533;-49
2023/06/13 11:42:02;;;;;;;5.43;4.28;;;33.20;39.80;;;;;;5070942;28;20027;-51
2023/06/13 11:44:28;;;;;;;4.70;3.63;;;34.30;39.00;;;;;;5075485;28;20032;-48
2023/06/13 11:46:55;;;;;;;6.43;4.45;;;34.60;39.90;;;;;;5083717;28;20160;-48
2023/06/13 11:49:21;;;;;;;4.95;3.88;;;35.10;38.50;;;;;;5085168;28;20500;-51
2023/06/13 11:51:46;;;;;;;7.57;3.90;;;35.80;36.60;;;;;;5072335;28;20029;-48
2023/06/13 11:54:12;;;;;;;6.60;3.75;;;35.20;36.70;;;;;;5071212;28;20035;-48
2023/06/13 11:56:49;;;;;;;5.95;4.15;;;34.00;36.80;;;;;;5078707;28;20215;-48
2023/06/13 11:59:19;;;;;;;9.65;4.47;;;33.10;38.50;;;;;;5087173;28;20035;-49
2023/06/13 12:01:52;;;;;;;6.43;4.47;;;33.40;37.90;;;;;;5075706;28;20055;-51
2023/06/13 12:04:25;;;;;;;6.47;4.00;;;33.90;37.80;;;;;;5074922;28;20355;-48
2023/06/13 12:06:54;;;;;;;10.18;4.63;;;33.70;37.80;;;;;;5071126;28;20166;-48
2023/06/13 12:09:20;;;;;;;7.90;4.47;;;33.70;37.40;;;;;;5074580;28;20067;-50
2023/06/13 12:11:45;;;;;;;6.13;4.03;;;33.80;38.40;;;;;;5069671;28;20028;-49
2023/06/13 12:14:11;;;;;;;7.35;4.78;;;33.80;37.00;;;;;;5065047;28;20024;-51
2023/06/13 12:16:38;;;;;;;5.45;4.60;;;33.90;37.40;;;;;;5069179;28;20039;-51
2023/06/13 12:19:06;;;;;;;6.50;4.43;;;33.30;37.40;;;;;;5071804;28;20078;-50
2023/06/13 12:21:34;;;;;;;9.75;4.57;;;32.50;38.60;;;;;;5073920;28;20165;-50
2023/06/13 12:24:07;;;;;;;5.72;4.53;;;31.50;38.90;;;;;;5068136;28;20028;-48
2023/06/13 12:26:35;;;;;;;7.20;4.35;;;30.60;40.40;;;;;;5072941;28;20134;-48
2023/06/13 12:29:07;;;;;;;10.55;5.20;;;29.90;41.10;;;;;;5074960;28;20041;-48
2023/06/13 12:31:38;;;;;;;5.78;4.57;;;29.80;42.10;;;;;;5074831;28;20026;-49
2023/06/13 12:34:16;;;;;;;5.47;4.18;;;30.40;41.80;;;;;;5073097;28;20017;-50
2023/06/13 12:36:46;;;;;;;9.18;4.75;;;30.60;40.20;;;;;;5070621;28;20028;-48
2023/06/13 12:39:16;;;;;;;9.02;4.50;;;31.30;40.80;;;;;;5072201;28;20012;-50
2023/06/13 12:41:49;;;;;;;5.30;4.80;;;31.70;40.50;;;;;;5067219;28;20020;-47
2023/06/13 12:44:16;;;;;;;5.75;4.45;;;32.20;39.80;;;;;;5080692;28;20093;-48
2023/06/13 12:46:41;;;;;;;8.02;4.15;;;32.50;40.00;;;;;;5071936;28;20023;-51
2023/06/13 12:49:09;;;;;;;6.43;4.18;;;32.60;39.10;;;;;;5080548;28;20433;-52
2023/06/13 12:51:35;;;;;;;5.13;4.10;;;32.30;39.00;;;;;;5082163;28;20021;-48